Time,TemperatureF,DewpointF,PressureIn,WindDirection,WindDirectionDegrees,WindSpeedMPH,WindSpeedGustMPH,Humidity,HourlyPrecipIn,Conditions,Clouds,dailyrainin,SoftwareType,DateUTC
2013-03-27 00:11:00,40.6,40.0,29.97,SE,138,0.0,-999.0,96,-99.99,,,0.00,weatherlink.com 1.10,2013-03-27 07:11:00,
2013-03-27 00:26:00,40.3,39.0,29.97,SE,138,0.0,-999.0,96,-99.99,,,0.00,weatherlink.com 1.10,2013-03-27 07:26:00,
2013-03-27 00:41:00,40.6,40.0,29.97,SE,138,0.0,-999.0,97,-99.99,,,0.00,weatherlink.com 1.10,2013-03-27 07:41:00,
2013-03-27 00:56:00,41.3,41.0,29.97,SE,138,0.0,-999.0,98,-99.99,,,0.00,weatherlink.com 1.10,2013-03-27 07:56:00,
2013-03-27 01:11:00,41.6,41.0,29.96,SE,138,0.0,-999.0,99,-99.99,,,0.00,weatherlink.com 1.10,2013-03-27 08:11:00,
2013-03-27 01:26:00,41.3,41.0,29.96,SE,138,0.0,-999.0,99,-99.99,,,0.00,weatherlink.com 1.10,2013-03-27 08:26:00,
2013-03-27 01:41:00,41.0,41.0,29.96,SE,138,0.0,-999.0,99,-99.99,,,0.00,weatherlink.com 1.10,2013-03-27 08:41:00,
2013-03-27 01:56:00,40.9,41.0,29.96,SE,138,0.0,-999.0,99,-99.99,,,0.00,weatherlink.com 1.10,2013-03-27 08:56:00,
2013-03-27 02:11:00,41.0,41.0,29.96,SE,138,0.0,-999.0,99,-99.99,,,0.00,weatherlink.com 1.10,2013-03-27 09:11:00,
2013-03-27 02:26:00,41.0,41.0,29.96,SE,138,0.0,-999.0,99,-99.99,,,0.00,weatherlink.com 1.10,2013-03-27 09:26:00,
2013-03-27 02:41:00,41.3,41.0,29.96,SE,138,0.0,-999.0,99,-99.99,,,0.00,weatherlink.com 1.10,2013-03-27 09:41:00,
2013-03-27 02:56:00,41.9,42.0,29.95,SE,138,0.0,-999.0,99,-99.99,,,0.00,weatherlink.com 1.10,2013-03-27 09:56:00,
2013-03-27 03:11:00,42.4,42.0,29.95,SE,139,0.0,-999.0,100,-99.99,,,0.00,weatherlink.com 1.10,2013-03-27 10:11:00,
2013-03-27 03:26:00,43.0,43.0,29.95,SE,139,0.0,-999.0,100,-99.99,,,0.00,weatherlink.com 1.10,2013-03-27 10:26:00,
2013-03-27 03:41:00,43.6,44.0,29.95,SE,139,0.0,-999.0,100,-99.99,,,0.00,weatherlink.com 1.10,2013-03-27 10:41:00,
2013-03-27 03:56:00,43.9,44.0,29.95,SE,139,0.0,-999.0,100,-99.99,,,0.00,weatherlink.com 1.10,2013-03-27 10:56:00,
2013-03-27 04:11:00,44.2,44.0,29.95,SE,139,0.0,-999.0,100,-99.99,,,0.00,weatherlink.com 1.10,2013-03-27 11:11:00,
2013-03-27 04:41:00,44.9,45.0,29.95,SE,139,0.0,-999.0,100,-99.99,,,0.00,weatherlink.com 1.10,2013-03-27 11:41:00,
2013-03-27 04:56:00,44.9,45.0,29.94,SE,139,0.0,-999.0,100,-99.99,,,0.00,weatherlink.com 1.10,2013-03-27 11:56:00,
2013-03-27 05:11:00,45.0,45.0,29.94,SE,139,0.0,-999.0,100,-99.99,,,0.00,weatherlink.com 1.10,2013-03-27 12:11:00,
2013-03-27 05:26:00,45.0,45.0,29.94,SE,139,0.0,-999.0,100,-99.99,,,0.00,weatherlink.com 1.10,2013-03-27 12:26:00,
2013-03-27 05:41:00,45.2,45.0,29.94,SE,139,0.0,-999.0,100,-99.99,,,0.00,weatherlink.com 1.10,2013-03-27 12:41:00,
2013-03-27 06:11:00,45.2,45.0,29.94,SE,139,0.0,-999.0,100,-99.99,,,0.00,weatherlink.com 1.10,2013-03-27 13:11:00,
2013-03-27 06:26:00,45.2,45.0,29.94,SE,139,0.0,-999.0,100,-99.99,,,0.00,weatherlink.com 1.10,2013-03-27 13:26:00,
2013-03-27 06:41:00,44.9,45.0,29.94,SE,139,0.0,-999.0,100,-99.99,,,0.00,weatherlink.com 1.10,2013-03-27 13:41:00,
2013-03-27 06:56:00,44.9,45.0,29.94,SE,138,0.0,-999.0,100,-99.99,,,0.00,weatherlink.com 1.10,2013-03-27 13:56:00,
2013-03-27 07:11:00,44.6,45.0,29.95,SE,139,0.0,-999.0,100,-99.99,,,0.00,weatherlink.com 1.10,2013-03-27 14:11:00,
2013-03-27 07:26:00,44.9,45.0,29.95,SE,139,0.0,-999.0,100,-99.99,,,0.00,weatherlink.com 1.10,2013-03-27 14:26:00,
2013-03-27 07:41:00,45.5,46.0,29.96,SE,139,0.0,-999.0,100,-99.99,,,0.00,weatherlink.com 1.10,2013-03-27 14:41:00,
2013-03-27 08:11:00,46.7,47.0,29.96,SE,138,0.0,-999.0,100,-99.99,,,0.00,weatherlink.com 1.10,2013-03-27 15:11:00,
2013-03-27 08:26:00,47.3,47.0,29.96,SE,138,0.0,-999.0,100,-99.99,,,0.00,weatherlink.com 1.10,2013-03-27 15:26:00,
2013-03-27 08:41:00,47.9,48.0,29.96,SE,138,0.0,-999.0,100,-99.99,,,0.00,weatherlink.com 1.10,2013-03-27 15:41:00,
2013-03-27 08:57:00,48.2,48.0,29.96,SE,138,0.0,-999.0,99,-99.99,,,0.00,weatherlink.com 1.10,2013-03-27 15:57:00,
2013-03-27 09:12:00,48.7,48.0,29.97,SE,138,0.0,-999.0,97,-99.99,,,0.00,weatherlink.com 1.10,2013-03-27 16:12:00,
2013-03-27 09:26:00,49.3,48.0,29.97,SE,138,0.0,-999.0,95,-99.99,,,0.00,weatherlink.com 1.10,2013-03-27 16:26:00,
2013-03-27 09:41:00,49.8,48.0,29.98,SE,138,0.0,-999.0,92,-99.99,,,0.00,weatherlink.com 1.10,2013-03-27 16:41:00,
2013-03-27 09:56:00,50.4,48.0,29.98,SE,138,0.0,-999.0,91,-99.99,,,0.00,weatherlink.com 1.10,2013-03-27 16:56:00,
2013-03-27 10:11:00,51.3,48.0,29.98,SE,138,0.0,-999.0,89,-99.99,,,0.00,weatherlink.com 1.10,2013-03-27 17:11:00,
2013-03-27 10:26:00,52.3,48.0,29.98,SE,138,0.0,-999.0,86,-99.99,,,0.00,weatherlink.com 1.10,2013-03-27 17:26:00,
2013-03-27 10:42:00,53.5,49.0,29.98,SE,138,0.0,-999.0,85,-99.99,,,0.00,weatherlink.com 1.10,2013-03-27 17:42:00,
2013-03-27 10:56:00,54.1,49.0,29.98,SE,138,0.0,-999.0,83,-99.99,,,0.00,weatherlink.com 1.10,2013-03-27 17:56:00,
2013-03-27 11:11:00,54.4,50.0,29.98,SE,138,0.0,-999.0,85,-99.99,,,0.00,weatherlink.com 1.10,2013-03-27 18:11:00,
2013-03-27 11:26:00,54.5,51.0,29.99,SE,138,2.0,-999.0,87,-99.99,,,0.00,weatherlink.com 1.10,2013-03-27 18:26:00,
2013-03-27 11:41:00,55.1,51.0,29.99,SE,138,0.0,-999.0,87,-99.99,,,0.00,weatherlink.com 1.10,2013-03-27 18:41:00,
2013-03-27 11:56:00,56.0,51.0,29.98,SSE,157,0.0,-999.0,84,-99.99,,,0.00,weatherlink.com 1.10,2013-03-27 18:56:00,
2013-03-27 12:11:00,56.4,52.0,29.98,ESE,117,0.0,-999.0,84,-99.99,,,0.00,weatherlink.com 1.10,2013-03-27 19:11:00,
2013-03-27 12:27:00,57.2,52.0,29.98,ESE,117,0.0,-999.0,82,-99.99,,,0.00,weatherlink.com 1.10,2013-03-27 19:27:00,
2013-03-27 12:42:00,58.0,53.0,29.98,SSE,150,0.0,-999.0,82,-99.99,,,0.00,weatherlink.com 1.10,2013-03-27 19:42:00,
2013-03-27 12:57:00,58.1,53.0,29.98,ESE,117,0.0,-999.0,83,-99.99,,,0.00,weatherlink.com 1.10,2013-03-27 19:57:00,
2013-03-27 13:12:00,57.2,52.0,29.98,SSE,166,0.0,-999.0,84,-99.99,,,0.00,weatherlink.com 1.10,2013-03-27 20:12:00,
2013-03-27 13:27:00,57.2,54.0,29.99,South,190,0.0,-999.0,88,-99.99,,,0.00,weatherlink.com 1.10,2013-03-27 20:27:00,
2013-03-27 13:42:00,57.1,54.0,29.99,SSW,209,0.0,-999.0,88,-99.99,,,0.00,weatherlink.com 1.10,2013-03-27 20:42:00,
2013-03-27 13:57:00,57.7,54.0,29.98,SE,144,0.0,-999.0,86,-99.99,,,0.00,weatherlink.com 1.10,2013-03-27 20:57:00,
2013-03-27 14:12:00,57.7,52.0,29.98,SSE,165,0.0,-999.0,81,-99.99,,,0.00,weatherlink.com 1.10,2013-03-27 21:12:00,
2013-03-27 14:27:00,60.1,54.0,29.98,ENE,77,2.0,-999.0,79,-99.99,,,0.00,weatherlink.com 1.10,2013-03-27 21:27:00,
2013-03-27 14:42:00,59.7,51.0,29.97,SSE,151,2.0,-999.0,74,-99.99,,,0.00,weatherlink.com 1.10,2013-03-27 21:42:00,
2013-03-27 14:57:00,59.0,51.0,29.97,SE,130,0.0,-999.0,76,-99.99,,,0.00,weatherlink.com 1.10,2013-03-27 21:57:00,
2013-03-27 15:12:00,59.3,50.0,29.97,North,355,0.0,-999.0,72,-99.99,,,0.00,weatherlink.com 1.10,2013-03-27 22:12:00,
2013-03-27 15:27:00,58.9,49.0,29.97,SSE,159,1.0,-999.0,71,-99.99,,,0.00,weatherlink.com 1.10,2013-03-27 22:27:00,
2013-03-27 15:42:00,58.6,50.0,29.97,SSE,168,0.0,-999.0,72,-99.99,,,0.00,weatherlink.com 1.10,2013-03-27 22:42:00,
2013-03-27 15:57:00,58.3,49.0,29.97,ESE,104,1.0,-999.0,71,-99.99,,,0.00,weatherlink.com 1.10,2013-03-27 22:57:00,
2013-03-27 16:12:00,58.4,49.0,29.97,SSE,167,0.0,-999.0,71,-99.99,,,0.00,weatherlink.com 1.10,2013-03-27 23:12:00,
2013-03-27 16:27:00,58.7,49.0,29.97,SE,144,0.0,-999.0,70,-99.99,,,0.00,weatherlink.com 1.10,2013-03-27 23:27:00,
2013-03-27 16:42:00,58.4,49.0,29.97,South,180,0.0,-999.0,72,-99.99,,,0.00,weatherlink.com 1.10,2013-03-27 23:42:00,
2013-03-27 16:57:00,58.4,49.0,29.96,SE,137,2.0,-999.0,71,-99.99,,,0.00,weatherlink.com 1.10,2013-03-27 23:57:00,
2013-03-27 17:12:00,58.0,49.0,29.97,SE,136,0.0,-999.0,72,-99.99,,,0.00,weatherlink.com 1.10,2013-03-28 00:12:00,
2013-03-27 17:27:00,57.4,50.0,29.97,SE,136,0.0,-999.0,75,-99.99,,,0.00,weatherlink.com 1.10,2013-03-28 00:27:00,
2013-03-27 17:42:00,56.1,50.0,29.97,South,190,0.0,-999.0,79,-99.99,,,0.00,weatherlink.com 1.10,2013-03-28 00:42:00,
2013-03-27 17:57:00,56.0,50.0,29.97,South,190,0.0,-999.0,81,-99.99,,,0.00,weatherlink.com 1.10,2013-03-28 00:57:00,
2013-03-27 18:12:00,55.5,50.0,29.97,ESE,120,0.0,-999.0,82,-99.99,,,0.00,weatherlink.com 1.10,2013-03-28 01:12:00,
2013-03-27 18:27:00,55.1,50.0,29.97,ESE,120,0.0,-999.0,84,-99.99,,,0.00,weatherlink.com 1.10,2013-03-28 01:27:00,
2013-03-27 18:42:00,54.7,50.0,29.98,ESE,120,0.0,-999.0,85,-99.99,,,0.00,weatherlink.com 1.10,2013-03-28 01:42:00,
2013-03-27 18:57:00,54.2,50.0,29.98,ESE,120,0.0,-999.0,85,-99.99,,,0.00,weatherlink.com 1.10,2013-03-28 01:57:00,
2013-03-27 19:12:00,53.6,50.0,29.98,ESE,122,0.0,-999.0,86,-99.99,,,0.00,weatherlink.com 1.10,2013-03-28 02:12:00,
2013-03-27 19:27:00,53.2,50.0,29.98,SE,127,0.0,-999.0,88,-99.99,,,0.00,weatherlink.com 1.10,2013-03-28 02:27:00,
2013-03-27 19:42:00,52.7,50.0,29.97,SE,127,0.0,-999.0,89,-99.99,,,0.00,weatherlink.com 1.10,2013-03-28 02:42:00,
2013-03-27 19:57:00,52.3,50.0,29.98,SE,127,0.0,-999.0,90,-99.99,,,0.00,weatherlink.com 1.10,2013-03-28 02:57:00,
2013-03-27 20:12:00,51.9,49.0,29.98,NNW,338,0.0,-999.0,91,-99.99,,,0.00,weatherlink.com 1.10,2013-03-28 03:12:00,
2013-03-27 20:27:00,51.3,49.0,29.98,NNW,338,0.0,-999.0,91,-99.99,,,0.00,weatherlink.com 1.10,2013-03-28 03:27:00,
2013-03-27 20:42:00,50.8,49.0,29.99,NNW,338,0.0,-999.0,92,-99.99,,,0.00,weatherlink.com 1.10,2013-03-28 03:42:00,
2013-03-27 20:57:00,50.4,49.0,29.99,NNW,338,0.0,-999.0,93,-99.99,,,0.00,weatherlink.com 1.10,2013-03-28 03:57:00,
2013-03-27 21:12:00,50.1,48.0,29.99,West,273,0.0,-999.0,93,-99.99,,,0.00,weatherlink.com 1.10,2013-03-28 04:12:00,
2013-03-27 21:27:00,49.8,48.0,30.00,West,274,0.0,-999.0,94,-99.99,,,0.00,weatherlink.com 1.10,2013-03-28 04:27:00,
2013-03-27 21:42:00,49.2,48.0,30.00,West,273,0.0,-999.0,94,-99.99,,,0.00,weatherlink.com 1.10,2013-03-28 04:42:00,
2013-03-27 21:57:00,48.9,47.0,30.00,West,273,0.0,-999.0,94,-99.99,,,0.00,weatherlink.com 1.10,2013-03-28 04:57:00,
2013-03-27 22:12:00,49.0,48.0,30.00,West,273,1.0,-999.0,96,-99.99,,,0.00,weatherlink.com 1.10,2013-03-28 05:12:00,
2013-03-27 22:27:00,49.2,48.0,30.01,West,273,0.0,-999.0,96,-99.99,,,0.00,weatherlink.com 1.10,2013-03-28 05:27:00,
2013-03-27 22:42:00,49.0,48.0,30.01,West,273,0.0,-999.0,97,-99.99,,,0.00,weatherlink.com 1.10,2013-03-28 05:42:00,
2013-03-27 22:57:00,49.0,49.0,30.01,West,273,0.0,-999.0,98,-99.99,,,0.00,weatherlink.com 1.10,2013-03-28 05:57:00,
2013-03-27 23:12:00,48.9,48.0,30.01,West,273,0.0,-999.0,98,-99.99,,,0.00,weatherlink.com 1.10,2013-03-28 06:12:00,
2013-03-27 23:27:00,48.9,49.0,30.01,West,273,0.0,-999.0,99,-99.99,,,0.00,weatherlink.com 1.10,2013-03-28 06:27:00,
2013-03-27 23:42:00,48.9,49.0,30.01,West,273,1.0,-999.0,99,-99.99,,,0.00,weatherlink.com 1.10,2013-03-28 06:42:00,
2013-03-27 23:57:00,48.9,49.0,30.01,West,273,0.0,-999.0,99,-99.99,,,0.00,weatherlink.com 1.10,2013-03-28 06:57:00,